Time;durP1;ratioP1;P1;durP2;ratioP2;P2;SDS_P1;SDS_P2;PMS_P1;PMS_P2;Temp;Humidity;BMP_temperature;BMP_pressure;BME280_temperature;BME280_humidity;BME280_pressure;Samples;Min_cycle;Max_cycle;Signal;HPM_P1;HPM_P2
2022/03/08 00:00:54;;;;;;;22.30;14.10;;;;;;;-0.17;84.99;101984.84;4959153;28;20042;-85
2022/03/08 00:03:20;;;;;;;25.73;13.63;;;;;;;-0.20;84.42;101982.13;4951376;28;20049;-85
2022/03/08 00:05:47;;;;;;;25.60;14.85;;;;;;;-0.25;84.27;101968.13;4949688;28;20058;-85
2022/03/08 00:08:14;;;;;;;26.67;14.95;;;;;;;-0.25;84.80;101975.84;4962604;28;20482;-85
2022/03/08 00:10:40;;;;;;;32.95;14.88;;;;;;;-0.28;85.00;101978.25;4967657;28;20049;-85
2022/03/08 00:13:07;;;;;;;23.67;14.10;;;;;;;-0.29;84.45;101973.88;4967510;28;20097;-84
2022/03/08 00:15:34;;;;;;;29.92;15.40;;;;;;;-0.31;85.49;101980.63;4956344;28;20042;-86
2022/03/08 00:18:00;;;;;;;30.20;15.55;;;;;;;-0.31;85.55;101980.63;4968594;28;20050;-86
2022/03/08 00:20:27;;;;;;;25.90;14.65;;;;;;;-0.36;85.31;101978.69;4965008;28;20291;-86
2022/03/08 00:22:54;;;;;;;25.10;14.52;;;;;;;-0.38;85.43;101972.56;4965340;28;20333;-85
2022/03/08 00:25:21;;;;;;;30.10;15.23;;;;;;;-0.41;86.03;101958.66;4964656;28;20058;-83
2022/03/08 00:27:48;;;;;;;24.15;13.93;;;;;;;-0.42;85.76;101960.31;4964420;28;20046;-85
2022/03/08 00:30:18;;;;;;;28.30;14.93;;;;;;;-0.42;85.83;101960.31;4951444;28;20046;-84
2022/03/08 00:32:46;;;;;;;29.15;14.60;;;;;;;-0.44;86.57;101955.88;4964746;28;20054;-85
2022/03/08 00:35:13;;;;;;;26.15;17.52;;;;;;;-0.45;86.58;101960.16;4967961;28;20062;-85
2022/03/08 00:37:40;;;;;;;20.23;13.63;;;;;;;-0.47;86.07;101955.72;4947945;28;20109;-85
2022/03/08 00:40:10;;;;;;;26.60;14.68;;;;;;;-0.49;85.64;101958.22;4965032;28;20667;-85
2022/03/08 00:42:36;;;;;;;28.23;15.55;;;;;;;-0.51;86.57;101952.97;4967894;28;20116;-85
2022/03/08 00:45:07;;;;;;;24.00;14.07;;;;;;;-0.53;86.51;101959.72;4949233;28;20057;-85
2022/03/08 00:47:34;;;;;;;26.77;15.63;;;;;;;-0.55;86.39;101955.28;4948864;28;20053;-85
2022/03/08 00:50:04;;;;;;;26.70;15.73;;;;;;;-0.59;87.14;101951.63;4967177;28;20077;-85
2022/03/08 00:52:30;;;;;;;23.27;13.35;;;;;;;-0.60;87.94;101944.75;4943287;28;20060;-85
2022/03/08 00:54:57;;;;;;;27.17;15.10;;;;;;;-0.60;87.70;101946.41;4944901;28;20038;-84
2022/03/08 00:57:24;;;;;;;28.67;14.75;;;;;;;-0.61;87.61;101944.63;4957673;28;20118;-88
2022/03/08 00:59:50;;;;;;;26.52;16.30;;;;;;;-0.61;87.55;101945.53;4964284;28;20061;-85
2022/03/08 01:02:17;;;;;;;29.92;17.08;;;;;;;-0.65;87.49;101933.31;4965369;28;20074;-86
2022/03/08 01:04:43;;;;;;;31.05;15.73;;;;;;;-0.66;88.58;101934.09;4944957;28;20052;-85
2022/03/08 01:07:10;;;;;;;31.48;14.65;;;;;;;-0.68;88.74;101934.00;4963519;28;20054;-84
2022/03/08 01:09:36;;;;;;;21.52;12.45;;;;;;;-0.69;89.11;101939.06;4946958;28;20140;-86
2022/03/08 01:12:03;;;;;;;26.23;14.10;;;;;;;-0.73;89.01;101934.53;4968410;28;20057;-85
2022/03/08 01:14:30;;;;;;;26.55;15.48;;;;;;;-0.77;89.24;101938.63;4965389;28;20045;-85
2022/03/08 01:16:56;;;;;;;27.33;14.00;;;;;;;-0.82;89.10;101936.56;4941751;28;20069;-85
2022/03/08 01:19:23;;;;;;;27.00;13.93;;;;;;;-0.86;89.39;101940.63;4969191;28;20463;-85
2022/03/08 01:21:50;;;;;;;21.50;13.48;;;;;;;-0.88;90.59;101939.69;4967982;28;20154;-85
2022/03/08 01:24:16;;;;;;;23.63;14.77;;;;;;;-0.94;90.35;101941.88;4953080;28;20073;-85
2022/03/08 01:26:46;;;;;;;23.30;13.40;;;;;;;-0.98;91.01;101943.38;4972343;28;20042;-86
2022/03/08 01:29:12;;;;;;;21.27;12.60;;;;;;;-1.01;91.46;101940.63;4952946;28;20038;-85
2022/03/08 01:31:39;;;;;;;25.67;13.55;;;;;;;-1.03;92.24;101940.56;4976573;28;20128;-84
2022/03/08 01:34:05;;;;;;;24.30;14.10;;;;;;;-1.06;92.78;101939.47;4973976;28;20054;-85
2022/03/08 01:36:32;;;;;;;22.50;13.38;;;;;;;-1.05;93.74;101941.25;4943513;28;20195;-85
2022/03/08 01:38:58;;;;;;;32.78;14.02;;;;;;;-1.06;93.89;101936.91;4949205;28;20054;-85
2022/03/08 01:41:25;;;;;;;21.05;12.38;;;;;;;-1.07;94.00;101927.41;4945704;28;20058;-85
2022/03/08 01:43:51;;;;;;;28.08;13.15;;;;;;;-1.09;93.66;101939.31;4948684;28;20054;-86
2022/03/08 01:46:18;;;;;;;24.38;13.45;;;;;;;-1.11;94.11;101940.88;4945436;28;20152;-86
2022/03/08 01:48:45;;;;;;;23.05;13.13;;;;;;;-1.14;94.18;101931.31;4941425;28;20058;-85
2022/03/08 01:51:14;;;;;;;20.05;13.40;;;;;;;-1.14;94.36;101933.00;4962554;28;20054;-86
2022/03/08 01:53:41;;;;;;;20.88;12.75;;;;;;;-1.17;94.16;101932.03;4952811;28;20171;-85
2022/03/08 01:56:11;;;;;;;25.70;13.23;;;;;;;-1.16;94.96;101930.34;4962824;28;20140;-85
2022/03/08 01:58:38;;;;;;;25.92;13.10;;;;;;;-1.16;95.07;101930.34;4967243;28;20137;-85
2022/03/08 02:01:07;;;;;;;24.27;14.13;;;;;;;-1.16;95.00;101922.66;4952479;28;20149;-85
2022/03/08 02:03:35;;;;;;;25.27;13.35;;;;;;;-1.15;94.68;101920.94;4968150;28;20056;-85
2022/03/08 02:06:03;;;;;;;23.63;12.70;;;;;;;-1.15;94.69;101923.53;4968678;28;20034;-85
2022/03/08 02:08:32;;;;;;;23.10;13.05;;;;;;;-1.16;94.71;101925.22;4940868;28;20145;-85
2022/03/08 02:10:58;;;;;;;25.85;13.85;;;;;;;-1.17;95.09;101918.28;4968589;28;20081;-86
2022/03/08 02:13:28;;;;;;;23.65;13.35;;;;;;;-1.15;95.38;101918.38;4959454;28;20046;-86
2022/03/08 02:15:55;;;;;;;25.08;13.70;;;;;;;-1.18;94.68;101921.66;4952041;28;20039;-85
2022/03/08 02:18:23;;;;;;;25.40;14.98;;;;;;;-1.19;94.83;101914.72;4960223;28;20059;-85
2022/03/08 02:20:50;;;;;;;24.20;14.23;;;;;;;-1.18;94.97;101919.09;4956091;28;20052;-86
2022/03/08 02:23:17;;;;;;;27.02;14.23;;;;;;;-1.22;95.06;101909.44;4965829;28;20116;-84
2022/03/08 02:25:43;;;;;;;24.13;12.68;;;;;;;-1.25;95.08;101909.22;4962887;28;20302;-85
2022/03/08 02:28:10;;;;;;;30.10;15.13;;;;;;;-1.24;95.96;101916.13;4947921;28;20065;-85
2022/03/08 02:30:36;;;;;;;24.30;13.80;;;;;;;-1.27;95.25;101911.72;4968865;28;20042;-85
2022/03/08 02:33:03;;;;;;;23.70;14.02;;;;;;;-1.30;95.57;101916.69;4945138;28;20046;-85
2022/03/08 02:35:32;;;;;;;28.55;13.98;;;;;;;-1.33;95.45;101919.03;4950592;28;20043;-85
2022/03/08 02:38:03;;;;;;;27.05;14.77;;;;;;;-1.39;95.79;101923.84;4962311;28;20060;-85
2022/03/08 02:40:35;;;;;;;27.65;14.07;;;;;;;-1.40;95.93;101914.34;4960431;28;20049;-85
2022/03/08 02:43:02;;;;;;;26.75;15.30;;;;;;;-1.40;96.80;101910.09;4964506;28;20433;-85
2022/03/08 02:45:29;;;;;;;24.95;15.77;;;;;;;-1.42;96.58;101911.69;4954554;28;20055;-85
2022/03/08 02:47:56;;;;;;;25.42;15.50;;;;;;;-1.43;96.60;101915.06;4944085;28;20050;-84
2022/03/08 02:50:23;;;;;;;24.83;14.10;;;;;;;-1.46;96.79;101904.59;4965046;28;21189;-85
2022/03/08 02:52:52;;;;;;;29.13;15.30;;;;;;;-1.48;96.73;101911.31;4956423;28;20078;-85
2022/03/08 02:55:23;;;;;;;29.08;13.82;;;;;;;-1.49;97.20;101906.97;4959251;28;20038;-85
2022/03/08 02:57:50;;;;;;;26.42;14.38;;;;;;;-1.52;97.15;101906.78;4949923;28;20054;-85
2022/03/08 03:00:20;;;;;;;29.73;14.13;;;;;;;-1.55;97.18;101902.34;4961920;28;20054;-85
2022/03/08 03:02:47;;;;;;;24.83;13.50;;;;;;;-1.55;97.85;101909.16;4962510;28;20057;-84
2022/03/08 03:05:14;;;;;;;29.08;14.55;;;;;;;-1.58;97.94;101904.72;4951951;28;20137;-85
2022/03/08 03:07:42;;;;;;;23.17;14.18;;;;;;;-1.60;98.23;101900.28;4958289;28;20061;-84
2022/03/08 03:10:20;;;;;;;24.35;15.48;;;;;;;-1.60;98.70;101895.16;4952715;28;20059;-84
2022/03/08 03:12:48;;;;;;;24.00;14.50;;;;;;;-1.60;98.77;101896.06;4945325;28;20059;-84
2022/03/08 03:15:16;;;;;;;30.40;16.25;;;;;;;-1.62;98.69;101891.63;4957738;28;20039;-85
2022/03/08 03:17:43;;;;;;;25.33;13.75;;;;;;;-1.64;98.79;101899.25;4938631;28;20050;-85
2022/03/08 03:20:13;;;;;;;29.55;16.40;;;;;;;-1.65;99.28;101891.44;4942317;28;20039;-86
2022/03/08 03:22:40;;;;;;;29.95;15.90;;;;;;;-1.66;99.70;101898.25;4954874;28;20058;-85
2022/03/08 03:25:08;;;;;;;30.52;15.43;;;;;;;-1.68;100.00;101897.28;4947226;28;20382;-85
2022/03/08 03:27:36;;;;;;;31.98;18.08;;;;;;;-1.68;100.00;101902.41;4945166;28;20047;-85
2022/03/08 03:30:06;;;;;;;24.92;14.63;;;;;;;-1.70;100.00;101904.88;4972708;28;20042;-85
2022/03/08 03:32:32;;;;;;;30.85;16.52;;;;;;;-1.72;100.00;101903.91;4963665;28;20070;-85
2022/03/08 03:35:00;;;;;;;27.60;14.23;;;;;;;-1.72;100.00;101900.44;4947638;28;20065;-85
2022/03/08 03:37:27;;;;;;;28.65;15.40;;;;;;;-1.75;100.00;101896.00;4956591;28;20433;-84
2022/03/08 03:39:54;;;;;;;28.42;15.23;;;;;;;-1.74;100.00;101899.47;4959518;28;20062;-85
2022/03/08 03:42:20;;;;;;;27.80;15.85;;;;;;;-1.75;100.00;101895.13;4944761;28;20038;-85
2022/03/08 03:44:47;;;;;;;25.40;14.82;;;;;;;-1.76;100.00;101899.38;4951966;28;20373;-86
2022/03/08 03:47:13;;;;;;;29.45;14.68;;;;;;;-1.76;100.00;101894.25;4949475;28;20063;-85
2022/03/08 03:49:40;;;;;;;23.45;15.25;;;;;;;-1.78;100.00;101894.94;4960379;28;20056;-84
2022/03/08 03:52:07;;;;;;;28.42;15.02;;;;;;;-1.78;100.00;101900.94;4956550;28;20065;-85
2022/03/08 03:54:35;;;;;;;27.90;15.85;;;;;;;-1.76;100.00;101896.81;4964361;28;20046;-85
2022/03/08 03:57:01;;;;;;;29.90;13.68;;;;;;;-1.77;100.00;101905.28;4957697;28;20051;-85
2022/03/08 03:59:28;;;;;;;23.92;13.57;;;;;;;-1.78;100.00;101911.22;4966207;28;20429;-85
2022/03/08 04:01:54;;;;;;;28.50;15.02;;;;;;;-1.80;100.00;101910.22;4948662;28;20062;-85
2022/03/08 04:04:21;;;;;;;22.88;14.95;;;;;;;-1.81;100.00;101903.34;4950140;28;20417;-85
2022/03/08 04:06:47;;;;;;;29.45;16.35;;;;;;;-1.84;100.00;101906.59;4947514;28;20054;-85
2022/03/08 04:09:14;;;;;;;23.20;14.88;;;;;;;-1.86;100.00;101904.75;4954999;28;20047;-85
2022/03/08 04:11:40;;;;;;;23.90;13.48;;;;;;;-1.88;100.00;101898.59;4963550;28;20048;-85
2022/03/08 04:14:07;;;;;;;33.65;15.80;;;;;;;-1.87;100.00;101895.25;4944082;28;20352;-85
2022/03/08 04:16:33;;;;;;;22.17;14.00;;;;;;;-1.91;100.00;101896.75;4948422;28;20135;-85
2022/03/08 04:19:00;;;;;;;24.77;15.32;;;;;;;-1.92;100.00;101901.78;4961677;28;20058;-85
2022/03/08 04:21:26;;;;;;;25.42;15.00;;;;;;;-1.92;100.00;101906.91;4940246;28;20639;-85
2022/03/08 04:23:53;;;;;;;24.30;14.52;;;;;;;-1.93;100.00;101902.56;4943646;28;20046;-84
2022/03/08 04:26:19;;;;;;;24.52;15.90;;;;;;;-1.94;100.00;101899.13;4957926;28;20322;-85
2022/03/08 04:28:46;;;;;;;30.33;14.60;;;;;;;-1.96;100.00;101902.38;4944439;28;20046;-85
2022/03/08 04:31:13;;;;;;;24.25;14.27;;;;;;;-1.96;100.00;101903.25;4965201;28;20046;-85
2022/03/08 04:33:39;;;;;;;26.92;14.60;;;;;;;-1.96;100.00;101910.97;4952327;28;20221;-85
2022/03/08 04:36:06;;;;;;;34.30;14.90;;;;;;;-1.96;100.00;101904.94;4958648;28;20100;-85
2022/03/08 04:38:34;;;;;;;26.95;14.50;;;;;;;-1.96;100.00;101908.41;4944766;28;20401;-85
2022/03/08 04:41:02;;;;;;;32.67;14.38;;;;;;;-1.98;100.00;101899.72;4937786;28;20383;-85
2022/03/08 04:43:29;;;;;;;28.98;14.15;;;;;;;-1.99;100.00;101915.91;4959971;28;20588;-85
2022/03/08 04:45:56;;;;;;;20.77;14.35;;;;;;;-2.00;100.00;101917.56;4953826;28;20061;-85
2022/03/08 04:48:22;;;;;;;25.63;14.93;;;;;;;-1.99;100.00;101921.03;4958869;28;20054;-85
2022/03/08 04:50:49;;;;;;;27.17;14.75;;;;;;;-2.00;100.00;101920.13;4943794;28;20528;-86
2022/03/08 04:53:16;;;;;;;26.52;15.30;;;;;;;-2.01;100.00;101918.38;4953275;28;20123;-85
2022/03/08 04:55:42;;;;;;;25.38;14.20;;;;;;;-2.04;100.00;101925.88;4944342;28;20057;-85
2022/03/08 04:58:09;;;;;;;30.90;16.08;;;;;;;-2.05;100.00;101918.97;4934513;28;20051;-84
2022/03/08 05:00:35;;;;;;;25.83;13.77;;;;;;;-2.06;100.00;101921.44;4970723;28;20054;-86
2022/03/08 05:03:02;;;;;;;28.52;14.63;;;;;;;-2.08;100.00;101923.91;4960760;28;20551;-84
2022/03/08 05:05:29;;;;;;;26.75;15.70;;;;;;;-2.10;100.00;101920.38;4942012;28;20137;-84
2022/03/08 05:07:56;;;;;;;26.23;14.43;;;;;;;-2.11;100.00;101917.69;4960522;28;20150;-85
2022/03/08 05:10:22;;;;;;;28.55;15.88;;;;;;;-2.13;100.00;101916.72;4962256;28;20050;-85
2022/03/08 05:12:49;;;;;;;29.52;15.73;;;;;;;-2.13;100.00;101920.16;4965445;28;20050;-85
2022/03/08 05:15:15;;;;;;;27.05;15.40;;;;;;;-2.12;100.00;101921.06;4954143;28;20055;-84
2022/03/08 05:17:42;;;;;;;30.08;16.40;;;;;;;-2.11;100.00;101921.16;4946837;28;20053;-86
2022/03/08 05:20:09;;;;;;;21.38;13.73;;;;;;;-2.12;100.00;101918.50;4956371;28;20475;-85
2022/03/08 05:22:35;;;;;;;27.42;14.38;;;;;;;-2.13;100.00;101916.72;4957574;28;20055;-84
2022/03/08 05:25:03;;;;;;;24.35;14.82;;;;;;;-2.13;100.00;101917.59;4949559;28;20042;-86
2022/03/08 05:27:29;;;;;;;27.52;15.20;;;;;;;-2.14;100.00;101918.38;4945211;28;20050;-85
2022/03/08 05:29:56;;;;;;;27.70;14.48;;;;;;;-2.16;100.00;101915.72;4941844;28;20074;-84
2022/03/08 05:32:22;;;;;;;24.30;14.88;;;;;;;-2.17;100.00;101921.66;4946506;28;20065;-84
2022/03/08 05:34:49;;;;;;;28.60;16.15;;;;;;;-2.17;100.00;101920.78;4938366;28;20504;-85
2022/03/08 05:37:15;;;;;;;24.63;13.82;;;;;;;-2.20;100.00;101925.72;4944355;28;20055;-85
2022/03/08 05:39:42;;;;;;;26.45;13.73;;;;;;;-2.24;100.00;101924.63;4958850;28;20054;-85
2022/03/08 05:42:08;;;;;;;24.60;14.02;;;;;;;-2.25;100.00;101924.53;4931024;28;20058;-84
2022/03/08 05:44:35;;;;;;;22.92;15.02;;;;;;;-2.28;100.00;101917.53;4956309;28;20295;-85
2022/03/08 05:47:01;;;;;;;33.17;15.32;;;;;;;-2.28;100.00;101925.22;4955384;28;20046;-85
2022/03/08 05:49:28;;;;;;;24.73;14.75;;;;;;;-2.28;100.00;101922.66;4934790;28;20066;-85
2022/03/08 05:51:54;;;;;;;27.15;15.60;;;;;;;-2.28;100.00;101924.31;4958119;28;20135;-85
2022/03/08 05:54:21;;;;;;;24.77;14.25;;;;;;;-2.30;100.00;101920.78;4949124;28;20039;-85
2022/03/08 05:56:47;;;;;;;30.40;15.48;;;;;;;-2.26;100.00;101915.06;4937115;28;20062;-85
2022/03/08 05:59:14;;;;;;;22.13;13.60;;;;;;;-2.27;100.00;101921.84;4942430;28;20054;-87
2022/03/08 06:01:41;;;;;;;20.85;12.75;;;;;;;-2.26;100.00;101927.88;4953852;28;20405;-85
2022/03/08 06:04:07;;;;;;;31.15;14.38;;;;;;;-2.27;100.00;101937.25;4941232;28;20049;-85
2022/03/08 06:06:34;;;;;;;29.10;15.02;;;;;;;-2.23;100.00;101930.63;4959721;28;20085;-85
2022/03/08 06:09:00;;;;;;;24.83;14.55;;;;;;;-2.23;100.00;101934.09;4947728;28;20066;-84
2022/03/08 06:11:27;;;;;;;26.30;14.13;;;;;;;-2.19;100.00;101940.28;4955812;28;20058;-85
2022/03/08 06:13:53;;;;;;;30.02;14.75;;;;;;;-2.19;100.00;101932.59;4955791;28;20596;-85
2022/03/08 06:16:20;;;;;;;28.23;14.32;;;;;;;-2.13;100.00;101939.81;4940324;28;20053;-86
2022/03/08 06:18:46;;;;;;;25.98;14.45;;;;;;;-2.12;100.00;101947.59;4941091;28;20506;-85
2022/03/08 06:21:13;;;;;;;25.05;13.20;;;;;;;-2.10;100.00;101945.13;4933169;28;20453;-84
2022/03/08 06:23:39;;;;;;;25.75;14.35;;;;;;;-2.08;100.00;101943.56;4938089;28;20055;-85
2022/03/08 06:26:06;;;;;;;27.48;16.02;;;;;;;-2.04;100.00;101950.66;4940858;28;20120;-82
2022/03/08 06:28:39;;;;;;;24.77;16.48;;;;;;;-2.02;100.00;101939.72;4961250;28;20086;-83
2022/03/08 06:31:06;;;;;;;25.10;14.45;;;;;;;-1.98;100.00;101950.16;4969617;28;20082;-84
2022/03/08 06:33:32;;;;;;;31.55;15.68;;;;;;;-1.96;100.00;101946.00;4969346;28;20109;-83
2022/03/08 06:35:59;;;;;;;23.10;13.55;;;;;;;-1.92;100.00;101950.53;4958520;28;20050;-84
2022/03/08 06:38:25;;;;;;;26.85;15.75;;;;;;;-1.91;100.00;101942.94;4940901;28;20055;-85
2022/03/08 06:40:52;;;;;;;28.45;15.30;;;;;;;-1.84;100.00;101944.19;4943318;28;20714;-85
2022/03/08 06:43:19;;;;;;;30.25;14.93;;;;;;;-1.78;100.00;101942.03;4962260;28;20047;-85
2022/03/08 06:45:45;;;;;;;27.65;16.48;;;;;;;-1.72;100.00;101944.06;4940179;28;20050;-85
2022/03/08 06:48:12;;;;;;;30.40;16.58;;;;;;;-1.68;100.00;101931.53;4936600;28;20069;-85
2022/03/08 06:50:39;;;;;;;28.85;16.27;;;;;;;-1.62;100.00;101933.56;4963539;28;20047;-84
2022/03/08 06:53:06;;;;;;;28.42;16.30;;;;;;;-1.55;99.73;101930.59;4939464;28;20047;-84
2022/03/08 06:55:32;;;;;;;27.00;15.38;;;;;;;-1.51;99.90;101929.13;4945482;28;20085;-84
2022/03/08 06:57:59;;;;;;;23.25;14.60;;;;;;;-1.45;100.00;101928.59;4944408;28;20054;-85
2022/03/08 07:00:26;;;;;;;25.90;16.27;;;;;;;-1.31;99.24;101925.16;4951976;28;20074;-85
2022/03/08 07:02:53;;;;;;;27.42;15.52;;;;;;;-0.90;99.52;101918.13;4979885;28;20482;-85
2022/03/08 07:05:19;;;;;;;30.17;17.20;;;;;;;-0.32;98.56;101919.69;4941246;28;20050;-84
2022/03/08 07:07:46;;;;;;;30.20;15.32;;;;;;;0.30;97.10;101927.38;4942535;28;20089;-86
2022/03/08 07:10:13;;;;;;;25.80;14.07;;;;;;;0.87;93.54;101921.72;4956224;28;20057;-85
2022/03/08 07:12:39;;;;;;;21.98;13.65;;;;;;;1.37;88.28;101927.66;4955270;28;20532;-84
2022/03/08 07:15:07;;;;;;;25.45;14.07;;;;;;;1.80;85.08;101924.56;4959253;28;20043;-84
2022/03/08 07:17:34;;;;;;;30.13;14.45;;;;;;;2.24;84.95;101916.22;4937459;28;20053;-85
2022/03/08 07:20:00;;;;;;;22.58;12.60;;;;;;;2.65;83.10;101915.47;4934686;28;20050;-84
2022/03/08 07:22:27;;;;;;;18.88;13.10;;;;;;;3.10;79.78;101926.84;4943317;28;20062;-85
2022/03/08 07:24:54;;;;;;;17.52;12.23;;;;;;;3.44;77.27;101912.72;4950941;28;20109;-86
2022/03/08 07:27:20;;;;;;;19.33;12.48;;;;;;;3.87;75.40;101923.91;4959729;28;20185;-85
2022/03/08 07:29:47;;;;;;;25.23;15.18;;;;;;;4.20;73.79;101920.84;4935317;28;20054;-85
2022/03/08 07:32:15;;;;;;;24.60;13.32;;;;;;;4.54;73.31;101916.94;4962165;28;20125;-86
2022/03/08 07:34:42;;;;;;;20.88;12.75;;;;;;;4.70;68.64;101914.03;4949746;28;20082;-85
2022/03/08 07:37:08;;;;;;;18.80;12.25;;;;;;;4.73;68.32;101918.44;4943722;28;20050;-85
2022/03/08 07:39:35;;;;;;;20.27;12.80;;;;;;;4.85;68.13;101921.50;4964948;28;20915;-85
2022/03/08 07:42:01;;;;;;;17.38;11.32;;;;;;;5.07;65.76;101924.81;4944365;28;20565;-85
2022/03/08 07:44:28;;;;;;;22.00;12.30;;;;;;;5.42;65.84;101920.81;4966448;28;20942;-86
2022/03/08 07:46:56;;;;;;;19.25;12.30;;;;;;;5.77;64.39;101926.22;4969411;28;20042;-86
2022/03/08 07:49:23;;;;;;;16.23;11.07;;;;;;;6.07;63.31;101925.44;4950047;28;20066;-86
2022/03/08 07:51:50;;;;;;;21.10;12.43;;;;;;;6.39;62.01;101916.84;4953853;28;20409;-85
2022/03/08 07:54:18;;;;;;;17.50;12.02;;;;;;;6.64;61.36;101921.00;4951892;28;20138;-86
2022/03/08 07:56:44;;;;;;;15.02;10.40;;;;;;;6.98;60.98;101924.50;4964225;28;20080;-86
2022/03/08 07:59:12;;;;;;;17.90;11.75;;;;;;;7.24;59.64;101926.91;4951731;28;20050;-86
2022/03/08 08:01:38;;;;;;;15.48;10.88;;;;;;;7.03;59.87;101929.84;4983470;28;21008;-87
2022/03/08 08:04:05;;;;;;;17.75;11.00;;;;;;;6.38;60.32;101936.75;4946204;28;20152;-86
2022/03/08 08:06:31;;;;;;;19.65;11.45;;;;;;;5.61;61.48;101934.38;4950395;28;20043;-86
2022/03/08 08:08:58;;;;;;;15.45;10.77;;;;;;;4.91;62.54;101945.03;4957498;28;20050;-86
2022/03/08 08:11:24;;;;;;;18.92;12.35;;;;;;;4.30;63.77;101946.28;4946517;28;20061;-86
2022/03/08 08:13:53;;;;;;;16.40;11.32;;;;;;;3.76;65.08;101945.09;4961148;28;20077;-85
2022/03/08 08:16:23;;;;;;;15.65;11.50;;;;;;;3.31;66.40;101955.34;4966407;28;20509;-86
2022/03/08 08:18:50;;;;;;;17.13;12.20;;;;;;;2.94;67.68;101953.78;4963663;28;20400;-86
2022/03/08 08:21:17;;;;;;;18.00;11.32;;;;;;;2.66;68.73;101957.75;4946161;28;20085;-86
2022/03/08 08:23:48;;;;;;;18.00;11.98;;;;;;;2.50;68.79;101956.16;4958907;28;20051;-85
2022/03/08 08:26:15;;;;;;;16.48;10.88;;;;;;;2.34;69.17;101952.00;4956214;28;20049;-85
2022/03/08 08:28:41;;;;;;;19.17;12.05;;;;;;;2.27;69.05;101953.44;4964303;28;20051;-85
2022/03/08 08:31:08;;;;;;;19.35;11.95;;;;;;;2.21;69.46;101945.38;4960998;28;20109;-85
2022/03/08 08:33:35;;;;;;;13.50;9.85;;;;;;;2.21;68.71;101953.13;4948963;28;20043;-85
2022/03/08 08:36:05;;;;;;;16.48;10.05;;;;;;;2.25;67.89;101951.59;4949568;28;20141;-86
2022/03/08 08:38:35;;;;;;;15.95;9.13;;;;;;;2.26;67.66;101946.47;4952932;28;20062;-85
2022/03/08 08:41:02;;;;;;;13.57;8.85;;;;;;;2.27;67.89;101943.09;4962763;28;20082;-86
2022/03/08 08:43:28;;;;;;;17.08;9.38;;;;;;;2.33;68.13;101945.06;4953026;28;20050;-85
2022/03/08 08:45:54;;;;;;;12.40;8.15;;;;;;;2.41;67.36;101942.81;4958578;28;20054;-85
2022/03/08 08:48:23;;;;;;;15.35;9.65;;;;;;;2.47;67.26;101943.13;4963327;28;20050;-85
2022/03/08 08:50:50;;;;;;;11.27;8.13;;;;;;;2.52;66.94;101935.56;4958753;28;20043;-85
2022/03/08 08:53:16;;;;;;;15.57;9.05;;;;;;;2.58;66.32;101939.31;4944606;28;20062;-86
2022/03/08 08:55:43;;;;;;;12.93;8.02;;;;;;;2.65;66.46;101935.28;4961169;28;20053;-86
2022/03/08 08:58:09;;;;;;;14.40;7.75;;;;;;;2.72;65.21;101926.09;4940636;28;20180;-85
2022/03/08 09:00:36;;;;;;;9.07;6.60;;;;;;;2.77;65.01;101922.88;4948701;28;20050;-85
2022/03/08 09:03:03;;;;;;;11.52;7.15;;;;;;;2.87;64.60;101923.28;4972466;28;20046;-85
2022/03/08 09:05:30;;;;;;;13.93;7.35;;;;;;;2.93;65.03;101914.13;4959621;28;20941;-86
2022/03/08 09:07:57;;;;;;;9.63;6.53;;;;;;;2.98;64.83;101916.88;4944022;28;20101;-85
2022/03/08 09:10:24;;;;;;;8.98;6.15;;;;;;;3.07;64.16;101914.69;4950960;28;20794;-86
2022/03/08 09:12:51;;;;;;;8.90;6.57;;;;;;;3.17;63.95;101910.78;4944212;28;20078;-85
2022/03/08 09:15:22;;;;;;;6.53;4.78;;;;;;;3.28;63.03;101912.09;4949047;28;20047;-86
2022/03/08 09:17:49;;;;;;;9.25;5.63;;;;;;;3.38;62.54;101904.72;4939300;28;20047;-85
2022/03/08 09:20:16;;;;;;;8.52;5.53;;;;;;;3.43;62.94;101903.22;4960245;28;20039;-86
2022/03/08 09:22:42;;;;;;;8.20;4.93;;;;;;;3.48;62.37;101891.31;4939650;28;20067;-85
2022/03/08 09:25:09;;;;;;;9.98;5.93;;;;;;;3.56;62.04;101891.63;4936448;28;20051;-84
2022/03/08 09:27:36;;;;;;;8.63;4.65;;;;;;;3.69;61.68;101887.81;4946576;28;20043;-84
2022/03/08 09:30:05;;;;;;;8.32;4.57;;;;;;;3.75;61.42;101888.94;4940211;28;20581;-86
2022/03/08 09:32:32;;;;;;;9.55;5.25;;;;;;;3.83;61.19;101894.41;4948483;28;20065;-85
2022/03/08 09:37:47;;;;;;;5.72;3.53;;;;;;;3.95;60.74;101884.53;4997157;28;20050;-91
2022/03/08 09:40:14;;;;;;;6.13;3.35;;;;;;;4.06;60.09;101891.84;4973262;28;20047;-91
2022/03/08 09:42:41;;;;;;;6.38;3.40;;;;;;;4.17;59.78;101889.63;4980739;28;20047;-92
2022/03/08 09:45:08;;;;;;;6.93;3.45;;;;;;;4.28;59.62;101880.56;4968859;28;20050;-90
2022/03/08 09:47:37;;;;;;;4.43;3.42;;;;;;;4.38;59.48;101884.34;4959771;28;20043;-89
2022/03/08 09:50:07;;;;;;;6.18;2.53;;;;;;;4.53;58.70;101881.44;4973522;28;20046;-92
2022/03/08 09:52:39;;;;;;;2.50;2.25;;;;;;;4.66;57.30;101875.84;4972483;28;20824;-89
2022/03/08 09:55:12;;;;;;;2.90;2.13;;;;;;;4.80;57.00;101879.81;4969462;28;20050;-91
2022/03/08 09:57:41;;;;;;;2.83;2.17;;;;;;;5.13;56.14;101870.50;4950258;28;20417;-92
2022/03/08 10:00:11;;;;;;;6.28;1.73;;;;;;;6.27;52.76;101863.63;4963899;28;20133;-89
2022/03/08 10:02:49;;;;;;;7.50;2.22;;;;;;;7.91;48.73;101866.78;4965902;28;20050;-90
2022/03/08 10:05:21;;;;;;;4.05;1.98;;;;;;;9.70;46.23;101850.81;4933219;28;20054;-91
2022/03/08 10:08:13;;;;;;;2.33;2.15;;;;;;;11.37;42.69;101848.22;4965500;28;20050;-89
2022/03/08 10:11:01;;;;;;;3.63;2.40;;;;;;;12.79;38.91;101852.31;4973200;28;20069;-94
2022/03/08 10:13:37;;;;;;;2.88;2.58;;;;;;;14.19;36.83;101848.59;4953306;28;20050;-88
2022/03/08 10:16:15;;;;;;;3.35;2.50;;;;;;;15.06;36.58;101848.94;4973236;28;20054;-88
2022/03/08 10:18:52;;;;;;;4.35;2.60;;;;;;;16.27;34.42;101855.56;4986793;28;20042;-89
2022/03/08 10:21:43;;;;;;;2.67;1.80;;;;;;;16.92;32.49;101838.78;4956273;28;20047;-88
2022/03/08 10:24:22;;;;;;;1.70;1.60;;;;;;;16.80;31.01;101848.63;4978492;28;20050;-87
2022/03/08 10:27:09;;;;;;;1.50;1.40;;;;;;;16.98;30.23;101846.63;4973941;28;20057;-87
2022/03/08 10:29:49;;;;;;;1.63;1.50;;;;;;;17.04;29.54;101849.16;4971403;28;20507;-88
2022/03/08 10:32:21;;;;;;;1.42;1.20;;;;;;;16.46;29.76;101851.78;4970343;28;20559;-93
2022/03/08 10:34:52;;;;;;;1.38;1.02;;;;;;;16.03;30.46;101852.34;4958355;28;20046;-87
2022/03/08 10:37:24;;;;;;;1.58;1.42;;;;;;;16.30;29.92;101852.91;4980785;28;20117;-88
2022/03/08 10:39:58;;;;;;;3.15;2.45;;;;;;;16.98;27.58;101844.84;4982137;28;20073;-85
2022/03/08 10:42:27;;;;;;;2.38;1.75;;;;;;;17.51;28.78;101852.72;5245516;23;20061;-87
2022/03/08 10:45:17;;;;;;;2.92;1.90;;;;;;;17.34;25.97;101844.25;4989837;28;20044;-93
2022/03/08 10:48:07;;;;;;;1.90;1.75;;;;;;;15.95;29.01;101847.16;4987408;28;20128;-85
2022/03/08 10:50:38;;;;;;;2.17;1.93;;;;;;;14.05;30.97;101846.91;4971761;28;20054;-86
2022/03/08 10:53:07;;;;;;;3.70;1.95;;;;;;;12.99;32.78;101845.31;4968029;28;20100;-89
2022/03/08 10:55:50;;;;;;;1.42;1.13;;;;;;;12.43;32.20;101851.41;4993107;28;20045;-87
2022/03/08 10:58:21;;;;;;;2.30;1.52;;;;;;;11.90;31.91;101838.94;4985824;28;20043;-88
2022/03/08 11:00:59;;;;;;;2.15;1.30;;;;;;;12.70;30.82;101840.94;4993716;28;20130;-88
2022/03/08 11:03:27;;;;;;;1.33;0.90;;;;;;;13.81;28.23;101828.59;4964407;28;20477;-90
2022/03/08 11:05:57;;;;;;;1.90;1.80;;;;;;;15.18;27.29;101817.16;4973481;28;20047;-88
2022/03/08 11:08:33;;;;;;;3.00;1.52;;;;;;;16.56;25.76;101819.91;4988086;28;20062;-86
2022/03/08 11:10:59;;;;;;;2.20;1.02;;;;;;;17.13;25.46;101817.25;4989098;28;20053;-87
2022/03/08 11:16:26;;;;;;;2.45;1.05;;;;;;;18.68;23.55;101804.31;4999998;28;20046;-84
2022/03/08 11:19:05;;;;;;;5.18;1.20;;;;;;;19.70;22.27;101806.09;4997189;28;20062;-89
2022/03/08 11:21:37;;;;;;;2.40;1.10;;;;;;;19.36;22.19;101806.16;5000129;28;20444;-91